Vandalia, Illinois
Current Conditions -  °F | °C
As of 10:15 PM on Sunday 21 Dec 2014 (Local Time) from KSLO Reporting Station
Overcast Overcast  
Wind Chill: 35°   Ceiling: 8500
Heat Index: 38°   Visibility: 10mi
Dew Point: 31°   Wind: 5mph
Humidity: 75%   Direction: 100°E
Pressure: 30.01"   Gusts: NA
Location:  38.96°N, 89.1°W
Report Text: KSLO 220415Z AUTO 10004KT 10SM SCT075 OVC085 04/00 A3001 RMK AO2 T00351005
Loading
Personal Weather Stations






























Interactive Weather Map New forecast layout! Learn more

10-Day Weather Forecast

Advertisements
Track Severe Weather on mobile